createdAt,value
2022-11-24T00:02:54.200Z,99204.84
2022-11-24T00:05:56.908Z,99208.03
2022-11-24T00:08:59.241Z,99201.37
2022-11-24T00:12:01.821Z,99203.88
2022-11-24T00:15:04.248Z,99208.03
2022-11-24T00:18:06.783Z,99210.97
2022-11-24T00:21:09.785Z,99207.81
2022-11-24T00:24:12.467Z,99207.19
2022-11-24T00:27:14.832Z,99216.06
2022-11-24T00:30:17.402Z,99218.47
2022-11-24T00:33:19.570Z,99223.13
2022-11-24T00:36:24.068Z,99221.56
2022-11-24T00:39:26.270Z,99224.06
2022-11-24T00:42:28.857Z,99231.16
2022-11-24T00:45:31.024Z,99236.69
2022-11-24T00:48:33.606Z,99238.84
2022-11-24T00:51:35.794Z,99231.94
2022-11-24T00:54:38.309Z,99233.63
2022-11-24T00:57:40.518Z,99241.19
2022-11-24T01:00:43.287Z,99239.69
2022-11-24T01:03:47.406Z,99248.28
2022-11-24T01:06:49.943Z,99248.84
2022-11-24T01:09:52.129Z,99253.69
2022-11-24T01:12:54.659Z,99247.00
2022-11-24T01:15:56.895Z,99254.69
2022-11-24T01:19:00.182Z,99254.69
2022-11-24T01:22:02.365Z,99249.69
2022-11-24T01:25:09.680Z,99245.28
2022-11-24T01:28:11.975Z,99245.72
2022-11-24T01:31:15.529Z,99246.91
2022-11-24T01:34:17.807Z,99248.03
2022-11-24T01:37:20.540Z,99245.84
2022-11-24T01:40:22.780Z,99257.66
2022-11-24T01:43:25.351Z,99251.81
2022-11-24T01:46:46.772Z,99253.81
2022-11-24T01:49:54.752Z,99255.06
2022-11-24T01:52:57.241Z,99256.69
2022-11-24T01:55:59.936Z,99253.91
2022-11-24T01:59:04.821Z,99255.25
2022-11-24T02:02:08.005Z,99259.09
2022-11-24T02:05:19.872Z,99261.50
2022-11-24T02:08:48.540Z,99254.19
2022-11-24T02:11:52.009Z,99256.66
2022-11-24T02:14:55.942Z,99253.25
2022-11-24T02:17:59.176Z,99258.47
2022-11-24T02:21:01.888Z,99258.88
2022-11-24T02:24:11.580Z,99260.03
2022-11-24T02:27:14.244Z,99263.91
2022-11-24T02:30:16.756Z,99265.31
2022-11-24T02:33:21.491Z,99260.25
2022-11-24T02:36:24.335Z,99266.22
2022-11-24T02:39:26.885Z,99268.50
2022-11-24T02:42:34.004Z,99274.44
2022-11-24T02:45:36.558Z,99267.47
2022-11-24T02:48:39.312Z,99261.63
2022-11-24T02:51:41.997Z,99267.75
2022-11-24T02:54:44.250Z,99262.09
2022-11-24T02:57:47.263Z,99262.47
2022-11-24T03:00:49.534Z,99269.00
2022-11-24T03:03:52.151Z,99270.63
2022-11-24T03:06:54.617Z,99272.41
2022-11-24T03:09:57.238Z,99271.69
2022-11-24T03:12:59.460Z,99281.12
2022-11-24T03:16:02.181Z,99278.16
2022-11-24T03:19:04.680Z,99288.69
2022-11-24T03:22:07.312Z,99288.12
2022-11-24T03:25:09.919Z,99289.97
2022-11-24T03:28:12.535Z,99295.56
2022-11-24T03:31:15.458Z,99295.19
2022-11-24T03:34:18.217Z,99290.53
2022-11-24T03:37:20.985Z,99297.59
2022-11-24T03:40:23.486Z,99295.00
2022-11-24T03:43:25.935Z,99298.50
2022-11-24T03:46:28.580Z,99292.87
2022-11-24T03:49:30.910Z,99284.31
2022-11-24T03:52:33.551Z,99291.38
2022-11-24T03:55:35.927Z,99293.41
2022-11-24T03:58:38.680Z,99293.41
2022-11-24T04:01:40.965Z,99300.41
2022-11-24T04:04:48.460Z,99304.78
2022-11-24T04:07:56.853Z,99301.72
2022-11-24T04:10:59.512Z,99307.03
2022-11-24T04:14:01.820Z,99302.72
2022-11-24T04:17:04.660Z,99305.41
2022-11-24T04:20:07.439Z,99312.91
2022-11-24T04:23:10.930Z,99313.53
2022-11-24T04:26:13.982Z,99317.72
2022-11-24T04:29:16.677Z,99320.50
2022-11-24T04:32:19.017Z,99323.25
2022-11-24T04:35:21.876Z,99331.44
2022-11-24T04:39:19.923Z,99329.28
2022-11-24T04:41:49.638Z,99331.69
2022-11-24T04:44:52.032Z,99341.59
2022-11-24T04:47:54.629Z,99351.59
2022-11-24T04:50:57.027Z,99349.62
2022-11-24T04:53:59.613Z,99362.22
2022-11-24T04:57:01.714Z,99362.28
2022-11-24T05:00:04.720Z,99372.12
2022-11-24T05:03:06.802Z,99370.38
2022-11-24T05:06:09.270Z,99375.03
2022-11-24T05:09:16.088Z,99376.59
2022-11-24T05:12:19.215Z,99384.31
2022-11-24T05:15:21.500Z,99386.19
2022-11-24T05:18:24.042Z,99393.25
2022-11-24T05:21:27.404Z,99391.94
2022-11-24T05:24:29.921Z,99381.81
2022-11-24T05:27:32.192Z,99389.44
2022-11-24T05:30:34.722Z,99392.31
2022-11-24T05:33:38.282Z,99394.00
2022-11-24T05:37:06.919Z,99399.56
2022-11-24T05:40:09.354Z,99399.94
2022-11-24T05:43:12.983Z,99396.41
2022-11-24T05:46:15.200Z,99399.47
2022-11-24T05:49:17.786Z,99407.66
2022-11-24T05:52:19.975Z,99403.38
2022-11-24T05:55:22.545Z,99416.09
2022-11-24T05:58:24.683Z,99417.03
2022-11-24T06:01:28.254Z,99423.75
2022-11-24T06:04:31.643Z,99429.97
2022-11-24T06:07:34.019Z,99421.78
2022-11-24T06:10:36.662Z,99423.56
2022-11-24T06:13:42.274Z,99420.78
2022-11-24T06:16:45.489Z,99422.44
2022-11-24T06:19:50.633Z,99431.19
2022-11-24T06:22:53.263Z,99433.72
2022-11-24T06:25:58.490Z,99438.13
2022-11-24T06:29:01.406Z,99451.47
2022-11-24T06:32:03.997Z,99444.41
2022-11-24T06:35:06.756Z,99461.25
2022-11-24T06:38:09.143Z,99458.75
2022-11-24T06:41:14.224Z,99465.88
2022-11-24T06:44:16.790Z,99465.06
2022-11-24T06:47:19.490Z,99480.97
2022-11-24T06:50:23.041Z,99480.59
2022-11-24T06:53:25.885Z,99487.28
2022-11-24T06:56:28.088Z,99497.03
2022-11-24T06:59:30.582Z,99493.22
2022-11-24T07:02:32.892Z,99503.94
2022-11-24T07:05:36.422Z,99500.31
2022-11-24T07:08:38.582Z,99504.97
2022-11-24T07:11:41.636Z,99519.47
2022-11-24T07:14:43.966Z,99513.81
2022-11-24T07:17:46.604Z,99513.34
2022-11-24T07:20:48.924Z,99522.84
2022-11-24T07:23:56.634Z,99529.53
2022-11-24T07:26:58.780Z,99535.94
2022-11-24T07:30:01.548Z,99534.09
2022-11-24T07:33:03.983Z,99530.53
2022-11-24T07:36:08.262Z,99539.13
2022-11-24T07:39:10.477Z,99531.81
2022-11-24T07:42:12.984Z,99536.91
2022-11-24T07:45:15.568Z,99534.72
2022-11-24T07:48:18.528Z,99533.63
2022-11-24T07:51:21.107Z,99545.47
2022-11-24T07:54:23.708Z,99555.91
2022-11-24T07:57:25.974Z,99550.25
2022-11-24T08:00:29.257Z,99541.84
2022-11-24T08:03:32.619Z,99539.38
2022-11-24T08:06:41.927Z,99543.50
2022-11-24T08:09:48.303Z,99544.25
2022-11-24T08:12:51.184Z,99539.94
2022-11-24T08:15:55.539Z,99553.19
2022-11-24T08:18:57.737Z,99548.78
2022-11-24T08:22:00.462Z,99544.56
2022-11-24T08:25:02.923Z,99552.13
2022-11-24T08:28:05.634Z,99549.91
2022-11-24T08:31:10.315Z,99560.47
2022-11-24T08:34:12.841Z,99569.19
2022-11-24T08:37:15.098Z,99574.03
2022-11-24T08:40:17.756Z,99581.19
2022-11-24T08:43:19.977Z,99576.56
2022-11-24T08:46:22.845Z,99586.00
2022-11-24T08:49:25.232Z,99588.28
2022-11-24T08:52:28.207Z,99588.69
2022-11-24T08:55:30.284Z,99598.19
2022-11-24T08:58:34.599Z,99598.13
2022-11-24T09:01:36.940Z,99591.34
2022-11-24T09:04:40.094Z,99590.34
2022-11-24T09:07:42.305Z,99596.94
2022-11-24T09:10:44.802Z,99604.37
2022-11-24T09:13:47.025Z,99596.09
2022-11-24T09:16:49.478Z,99597.19
2022-11-24T09:19:51.620Z,99601.53
2022-11-24T09:22:54.919Z,99603.19
2022-11-24T09:26:07.406Z,99605.66
2022-11-24T09:29:09.936Z,99606.25
2022-11-24T09:32:13.095Z,99608.59
2022-11-24T09:35:15.774Z,99613.31
2022-11-24T09:38:17.998Z,99611.69
2022-11-24T09:41:45.024Z,99619.25
2022-11-24T09:45:09.749Z,99611.00
2022-11-24T09:48:39.884Z,99611.78
2022-11-24T09:51:45.673Z,99616.88
2022-11-24T09:54:56.709Z,99611.03
2022-11-24T09:58:37.277Z,99607.84
2022-11-24T10:01:42.222Z,99615.22
2022-11-24T10:04:47.130Z,99615.59
2022-11-24T10:08:09.440Z,99600.25
2022-11-24T10:11:14.966Z,99619.37
2022-11-24T10:14:17.068Z,99617.06
2022-11-24T10:17:38.554Z,99616.47
2022-11-24T10:20:59.489Z,99605.88
2022-11-24T10:24:49.403Z,99615.62
2022-11-24T10:28:02.676Z,99612.47
2022-11-24T10:31:32.513Z,99602.25
2022-11-24T10:34:52.157Z,99615.72
2022-11-24T10:38:10.300Z,99611.91
2022-11-24T10:41:31.195Z,99612.53
2022-11-24T10:44:36.559Z,99611.84
2022-11-24T10:47:40.218Z,99621.50
2022-11-24T10:50:43.797Z,99631.75
2022-11-24T10:53:48.322Z,99637.59
2022-11-24T10:56:52.629Z,99636.84
2022-11-24T10:59:56.805Z,99652.28
2022-11-24T11:03:18.035Z,99658.09
2022-11-24T11:06:31.667Z,99659.19
2022-11-24T11:09:36.703Z,99667.72
2022-11-24T11:12:44.247Z,99659.41
2022-11-24T11:15:47.728Z,99664.31
2022-11-24T11:18:51.871Z,99663.09
2022-11-24T11:22:02.423Z,99664.88
2022-11-24T11:25:10.876Z,99671.19
2022-11-24T11:28:25.828Z,99679.13
2022-11-24T11:31:29.036Z,99678.72
2022-11-24T11:34:36.645Z,99682.97
2022-11-24T11:37:40.472Z,99681.00
2022-11-24T11:40:44.024Z,99684.78
2022-11-24T11:43:50.548Z,99672.31
2022-11-24T11:46:57.485Z,99682.91
2022-11-24T11:50:00.364Z,99682.38
2022-11-24T11:53:27.948Z,99684.16
2022-11-24T11:56:35.010Z,99685.81
2022-11-24T11:59:59.179Z,99689.69
2022-11-24T12:03:19.472Z,99694.50
2022-11-24T12:06:40.348Z,99684.97
2022-11-24T12:10:03.264Z,99687.59
2022-11-24T12:13:34.270Z,99696.28
2022-11-24T12:16:58.409Z,99685.94
2022-11-24T12:20:37.068Z,99693.31
2022-11-24T12:24:01.354Z,99688.19
2022-11-24T12:27:24.664Z,99680.72
2022-11-24T12:30:36.772Z,99686.03
2022-11-24T12:34:04.284Z,99701.03
2022-11-24T12:37:15.508Z,99704.50
2022-11-24T12:40:35.843Z,99708.97
2022-11-24T12:43:42.017Z,99698.91
2022-11-24T12:46:59.414Z,99704.00
2022-11-24T12:50:09.665Z,99709.75
2022-11-24T12:53:33.912Z,99722.66
2022-11-24T12:56:45.357Z,99725.94
2022-11-24T13:00:13.727Z,99721.13
2022-11-24T13:03:36.495Z,99726.84
2022-11-24T13:06:51.895Z,99734.09
2022-11-24T13:10:53.599Z,99725.84
2022-11-24T13:14:05.774Z,99728.59
2022-11-24T13:17:58.468Z,99725.84
2022-11-24T13:21:03.829Z,99733.09
2022-11-24T13:24:20.296Z,99734.09
2022-11-24T13:27:28.554Z,99739.28
2022-11-24T13:30:33.945Z,99732.84
2022-11-24T13:33:37.448Z,99734.19
2022-11-24T13:36:55.634Z,99730.66
2022-11-24T13:40:20.695Z,99734.59
2022-11-24T13:43:23.045Z,99739.84
2022-11-24T13:47:04.743Z,99738.72
2022-11-24T13:50:21.591Z,99740.09
2022-11-24T13:53:38.441Z,99738.62
2022-11-24T13:56:42.625Z,99741.25
2022-11-24T13:59:45.249Z,99749.28
2022-11-24T14:02:48.287Z,99735.16
2022-11-24T14:05:52.982Z,99749.16
2022-11-24T14:08:55.943Z,99755.84
2022-11-24T14:12:17.936Z,99754.56
2022-11-24T14:15:26.242Z,99762.91
2022-11-24T14:18:31.755Z,99768.22
2022-11-24T14:21:38.175Z,99780.06
2022-11-24T14:24:45.225Z,99772.84
2022-11-24T14:27:48.751Z,99783.12
2022-11-24T14:30:52.089Z,99788.75
2022-11-24T14:34:14.853Z,99784.22
2022-11-24T14:37:19.421Z,99794.09
2022-11-24T14:40:43.973Z,99794.28
2022-11-24T14:43:46.737Z,99800.34
2022-11-24T14:46:49.310Z,99803.78
2022-11-24T14:49:54.249Z,99802.66
2022-11-24T14:52:59.588Z,99813.31
2022-11-24T14:56:27.134Z,99813.31
2022-11-24T14:59:37.436Z,99821.41
2022-11-24T15:03:01.411Z,99825.81
2022-11-24T15:06:18.192Z,99831.78
2022-11-24T15:09:34.438Z,99834.84
2022-11-24T15:12:42.921Z,99840.19
2022-11-24T15:16:02.495Z,99839.44
2022-11-24T15:19:17.683Z,99839.25
2022-11-24T15:22:45.219Z,99846.13
2022-11-24T15:25:50.243Z,99846.59
2022-11-24T15:28:53.192Z,99853.59
2022-11-24T15:31:58.531Z,99842.69
2022-11-24T15:35:01.355Z,99848.66
2022-11-24T15:38:04.809Z,99852.25
2022-11-24T15:41:19.259Z,99856.87
2022-11-24T15:44:22.432Z,99865.25
2022-11-24T15:47:25.132Z,99860.28
2022-11-24T15:50:30.600Z,99864.19
2022-11-24T15:53:36.326Z,99864.44
2022-11-24T15:56:41.928Z,99868.38
2022-11-24T15:59:44.611Z,99867.09
2022-11-24T16:02:48.167Z,99874.94
2022-11-24T16:05:54.853Z,99869.16
2022-11-24T16:08:59.291Z,99878.94
2022-11-24T16:12:03.947Z,99881.88
2022-11-24T16:15:06.964Z,99882.66
2022-11-24T16:18:10.100Z,99883.31
2022-11-24T16:21:13.051Z,99881.28
2022-11-24T16:24:15.718Z,99879.72
2022-11-24T16:27:18.218Z,99881.63
2022-11-24T16:30:23.687Z,99873.16
2022-11-24T16:33:30.017Z,99875.41
2022-11-24T16:36:33.265Z,99877.09
2022-11-24T16:39:36.434Z,99874.84
2022-11-24T16:42:42.266Z,99878.31
2022-11-24T16:45:45.708Z,99887.41
2022-11-24T16:48:54.220Z,99896.13
2022-11-24T16:51:57.231Z,99896.88
2022-11-24T16:55:00.575Z,99891.78
2022-11-24T16:58:05.282Z,99906.06
2022-11-24T17:01:15.546Z,99905.84
2022-11-24T17:04:18.258Z,99892.81
2022-11-24T17:07:22.030Z,99898.41
2022-11-24T17:10:24.964Z,99894.28
2022-11-24T17:13:28.570Z,99901.66
2022-11-24T17:16:31.483Z,99904.19
2022-11-24T17:19:36.328Z,99902.53
2022-11-24T17:22:40.223Z,99907.03
2022-11-24T17:25:48.550Z,99918.31
2022-11-24T17:28:51.573Z,99921.91
2022-11-24T17:31:56.307Z,99928.59
2022-11-24T17:35:05.238Z,99926.78
2022-11-24T17:38:12.429Z,99940.97
2022-11-24T17:41:16.445Z,99935.84
2022-11-24T17:44:19.822Z,99933.97
2022-11-24T17:47:24.772Z,99934.59
2022-11-24T17:50:29.040Z,99949.47
2022-11-24T17:53:33.657Z,99954.13
2022-11-24T17:56:42.071Z,99967.91
2022-11-24T17:59:45.159Z,99970.28
2022-11-24T18:02:50.893Z,99971.03
2022-11-24T18:05:57.176Z,99970.72
2022-11-24T18:09:00.566Z,99978.81
2022-11-24T18:12:04.713Z,99980.19
2022-11-24T18:15:10.785Z,99984.31
2022-11-24T18:18:15.580Z,99990.31
2022-11-24T18:21:20.865Z,99989.53
2022-11-24T18:24:24.466Z,99987.31
2022-11-24T18:27:35.618Z,99990.47
2022-11-24T18:30:41.736Z,99995.56
2022-11-24T18:33:46.316Z,99999.25
2022-11-24T18:36:52.663Z,99997.50
2022-11-24T18:39:58.734Z,100002.41
2022-11-24T18:43:03.669Z,100001.16
2022-11-24T18:46:09.119Z,100001.25
2022-11-24T18:49:15.300Z,99996.44
2022-11-24T18:52:22.346Z,100005.88
2022-11-24T18:55:29.741Z,100006.59
2022-11-24T18:58:35.085Z,100009.16
2022-11-24T19:01:39.994Z,100014.59
2022-11-24T19:04:46.880Z,100013.53
2022-11-24T19:07:56.012Z,100009.69
2022-11-24T19:11:03.107Z,100016.44
2022-11-24T19:14:14.312Z,100019.13
2022-11-24T19:17:19.144Z,100019.81
2022-11-24T19:20:24.012Z,100028.69
2022-11-24T19:23:36.802Z,100040.25
2022-11-24T19:26:42.520Z,100041.00
2022-11-24T19:29:49.393Z,100050.37
2022-11-24T19:32:53.356Z,100048.62
2022-11-24T19:36:07.607Z,100047.91
2022-11-24T19:39:15.718Z,100061.37
2022-11-24T19:42:23.235Z,100057.78
2022-11-24T19:45:34.978Z,100059.25
2022-11-24T19:48:41.325Z,100069.38
2022-11-24T19:51:51.900Z,100072.81
2022-11-24T19:54:56.142Z,100069.03
2022-11-24T19:58:08.511Z,100079.50
2022-11-24T20:01:27.689Z,100090.44
2022-11-24T20:04:40.648Z,100100.16
2022-11-24T20:11:14.058Z,100107.22
2022-11-24T20:14:19.783Z,100110.91
2022-11-24T20:17:27.592Z,100114.53
2022-11-24T20:20:30.574Z,100110.53
2022-11-24T20:23:39.737Z,100118.06
2022-11-24T20:26:51.831Z,100123.97
2022-11-24T20:33:32.244Z,100140.41
2022-11-24T20:36:38.755Z,100135.44
2022-11-24T20:39:44.678Z,100142.53
2022-11-24T20:42:49.712Z,100145.91
2022-11-24T20:45:55.254Z,100149.19
2022-11-24T20:49:01.910Z,100151.22
2022-11-24T20:52:15.047Z,100157.41
2022-11-24T20:55:18.071Z,100155.94
2022-11-24T20:58:24.969Z,100156.59
2022-11-24T21:01:39.099Z,100157.06
2022-11-24T21:04:46.376Z,100165.44
2022-11-24T21:07:52.814Z,100161.56
2022-11-24T21:11:00.306Z,100159.06
2022-11-24T21:14:06.914Z,100167.84
2022-11-24T21:17:17.242Z,100165.00
2022-11-24T21:20:29.686Z,100177.13
2022-11-24T21:23:37.892Z,100172.63
2022-11-24T21:26:51.661Z,100175.13
2022-11-24T21:29:57.359Z,100168.38
2022-11-24T21:33:07.962Z,100172.81
2022-11-24T21:36:12.832Z,100170.38
2022-11-24T21:39:16.565Z,100171.63
2022-11-24T21:42:20.918Z,100179.09
2022-11-24T21:45:24.955Z,100175.84
2022-11-24T21:48:33.990Z,100181.59
2022-11-24T21:51:42.670Z,100186.88
2022-11-24T21:54:47.051Z,100176.53
2022-11-24T21:57:55.701Z,100184.75
2022-11-24T22:01:11.715Z,100192.22
2022-11-24T22:04:16.475Z,100194.94
2022-11-24T22:07:19.535Z,100197.94
2022-11-24T22:10:25.272Z,100200.47
2022-11-24T22:13:30.735Z,100203.97
2022-11-24T22:16:34.987Z,100213.41
2022-11-24T22:19:42.358Z,100217.63
2022-11-24T22:22:48.045Z,100208.62
2022-11-24T22:25:52.719Z,100221.66
2022-11-24T22:29:21.625Z,100216.00
2022-11-24T22:32:27.338Z,100222.97
2022-11-24T22:35:33.647Z,100229.78
2022-11-24T22:38:40.282Z,100229.31
2022-11-24T22:41:48.392Z,100232.19
2022-11-24T22:44:55.804Z,100229.84
2022-11-24T22:48:00.805Z,100231.53
2022-11-24T22:51:12.018Z,100232.28
2022-11-24T22:54:17.153Z,100229.66
2022-11-24T22:57:21.466Z,100230.91
2022-11-24T23:00:30.781Z,100246.87
2022-11-24T23:03:38.697Z,100246.09
2022-11-24T23:06:48.057Z,100246.22
2022-11-24T23:09:55.950Z,100253.81
2022-11-24T23:13:01.158Z,100248.62
2022-11-24T23:16:24.324Z,100256.59
2022-11-24T23:19:32.503Z,100253.97
2022-11-24T23:22:37.804Z,100261.47
2022-11-24T23:26:04.184Z,100266.16
2022-11-24T23:29:17.604Z,100262.75
2022-11-24T23:35:45.668Z,100262.88
2022-11-24T23:38:55.613Z,100260.16
2022-11-24T23:42:11.000Z,100264.84
2022-11-24T23:45:18.997Z,100272.69
2022-11-24T23:48:36.879Z,100278.13
2022-11-24T23:51:51.075Z,100279.28
2022-11-24T23:54:54.969Z,100280.59
2022-11-24T23:58:00.116Z,100285.72
